createdAt,value
2019-03-08T00:04:58.843Z,22.00
2019-03-08T00:10:58.903Z,19.40
2019-03-08T00:16:58.865Z,18.60
2019-03-08T00:22:59.941Z,16.70
2019-03-08T00:28:58.887Z,16.00
2019-03-08T00:34:58.845Z,15.30
2019-03-08T00:40:58.874Z,14.10
2019-03-08T00:46:58.879Z,13.80
2019-03-08T00:52:58.882Z,25.20
2019-03-08T00:58:58.891Z,147.50
2019-03-08T01:04:58.908Z,134.90
2019-03-08T01:11:01.971Z,107.20
2019-03-08T01:16:58.880Z,86.60
2019-03-08T01:22:59.002Z,84.00
2019-03-08T01:28:58.951Z,77.10
2019-03-08T01:34:58.924Z,75.80
2019-03-08T01:40:58.915Z,69.20
2019-03-08T01:46:58.931Z,68.10
2019-03-08T01:52:58.916Z,135.30
2019-03-08T01:58:58.950Z,206.10
2019-03-08T02:04:58.990Z,145.90
2019-03-08T02:10:58.907Z,132.70
2019-03-08T02:16:58.942Z,125.80
2019-03-08T02:22:58.971Z,120.20
2019-03-08T02:28:58.965Z,113.70
2019-03-08T02:34:58.939Z,104.90
2019-03-08T02:40:58.964Z,99.70
2019-03-08T02:46:58.961Z,93.30
2019-03-08T02:52:58.968Z,87.70
2019-03-08T02:58:58.970Z,85.10
2019-03-08T03:04:58.985Z,79.10
2019-03-08T03:10:58.943Z,74.10
2019-03-08T03:16:58.999Z,69.40
2019-03-08T03:22:58.995Z,67.50
2019-03-08T03:28:59.031Z,63.60
2019-03-08T03:34:59.019Z,61.80
2019-03-08T03:41:00.029Z,58.90
2019-03-08T03:46:59.003Z,55.40
2019-03-08T03:52:59.032Z,54.60
2019-03-08T03:58:59.027Z,49.00
2019-03-08T04:04:58.996Z,48.00
2019-03-08T04:10:59.009Z,46.10
2019-03-08T04:16:58.993Z,43.00
2019-03-08T04:22:59.026Z,41.80
2019-03-08T04:28:59.039Z,38.60
2019-03-08T04:34:59.043Z,38.40
2019-03-08T04:40:59.042Z,36.50
2019-03-08T04:46:59.073Z,35.00
2019-03-08T04:52:59.051Z,32.00
2019-03-08T04:58:59.070Z,31.80
2019-03-08T05:04:59.069Z,30.30
2019-03-08T05:10:59.180Z,29.30
2019-03-08T05:16:59.038Z,27.60
2019-03-08T05:22:59.056Z,26.20
2019-03-08T05:28:59.094Z,25.00
2019-03-08T05:34:59.062Z,23.30
2019-03-08T05:40:59.074Z,22.30
2019-03-08T05:46:59.098Z,22.00
2019-03-08T05:52:59.099Z,20.40
2019-03-08T05:58:59.311Z,20.10
2019-03-08T06:04:59.082Z,19.60
2019-03-08T06:10:59.077Z,17.90
2019-03-08T06:16:59.123Z,17.40
2019-03-08T06:22:59.128Z,16.60
2019-03-08T06:28:59.163Z,15.60
2019-03-08T06:34:59.103Z,14.80
2019-03-08T06:40:59.146Z,13.90
2019-03-08T06:46:59.176Z,13.20
2019-03-08T06:52:59.148Z,12.20
2019-03-08T06:58:59.476Z,12.60
2019-03-08T07:04:59.117Z,11.50
2019-03-08T07:10:59.134Z,11.10
2019-03-08T07:16:59.158Z,10.60
2019-03-08T07:22:59.143Z,11.50
2019-03-08T07:28:59.195Z,16.30
2019-03-08T07:34:59.156Z,20.40
2019-03-08T07:40:59.174Z,19.10
2019-03-08T07:46:59.178Z,19.70
2019-03-08T07:52:59.186Z,19.10
2019-03-08T07:58:59.185Z,21.80
2019-03-08T08:04:59.196Z,16.40
2019-03-08T08:10:59.200Z,15.50
2019-03-08T08:16:59.172Z,18.10
2019-03-08T08:22:59.194Z,13.70
2019-03-08T08:28:59.212Z,13.60
2019-03-08T08:34:59.226Z,12.90
2019-03-08T08:40:59.195Z,11.20
2019-03-08T08:46:59.213Z,71.50
2019-03-08T08:52:59.308Z,152.80
2019-03-08T08:58:59.235Z,239.60
2019-03-08T09:05:01.147Z,254.90
2019-03-08T09:10:59.218Z,305.10
2019-03-08T09:16:59.229Z,310.70
2019-03-08T09:22:59.232Z,302.10
2019-03-08T09:28:59.266Z,453.30
2019-03-08T09:34:59.279Z,351.80
2019-03-08T09:40:59.236Z,337.30
2019-03-08T09:46:59.283Z,323.80
2019-03-08T09:52:59.302Z,298.30
2019-03-08T09:58:59.251Z,277.40
2019-03-08T10:04:59.248Z,264.60
2019-03-08T10:10:59.274Z,268.50
2019-03-08T10:16:59.249Z,269.80
2019-03-08T10:22:59.231Z,253.70
2019-03-08T10:28:59.300Z,238.10
2019-03-08T10:34:59.321Z,216.70
2019-03-08T10:40:59.322Z,198.70
2019-03-08T10:46:59.309Z,189.10
2019-03-08T10:52:59.309Z,168.50
2019-03-08T10:58:59.336Z,160.60
2019-03-08T11:04:59.328Z,144.20
2019-03-08T11:11:06.113Z,133.90
2019-03-08T11:16:59.303Z,122.60
2019-03-08T11:22:59.311Z,112.90
2019-03-08T11:28:59.342Z,105.00
2019-03-08T11:34:59.354Z,96.50
2019-03-08T11:40:59.351Z,93.20
2019-03-08T11:46:59.405Z,84.80
2019-03-08T11:52:59.392Z,79.50
2019-03-08T11:58:59.318Z,76.60
2019-03-08T12:04:59.325Z,67.10
2019-03-08T12:10:59.380Z,63.10
2019-03-08T12:16:59.384Z,60.60
2019-03-08T12:22:59.331Z,57.90
2019-03-08T12:28:59.377Z,55.20
2019-03-08T12:34:59.402Z,50.70
2019-03-08T12:40:59.378Z,48.40
2019-03-08T12:46:59.421Z,44.90
2019-03-08T12:52:59.411Z,42.90
2019-03-08T12:59:00.619Z,40.40
2019-03-08T13:04:59.388Z,37.10
2019-03-08T13:10:59.409Z,36.40
2019-03-08T13:16:59.388Z,35.40
2019-03-08T13:22:59.421Z,32.10
2019-03-08T13:28:59.388Z,31.20
2019-03-08T13:34:59.391Z,30.90
2019-03-08T13:40:59.429Z,30.30
2019-03-08T13:46:59.423Z,28.60
2019-03-08T13:52:59.419Z,27.10
2019-03-08T13:59:00.278Z,26.40
2019-03-08T14:04:59.447Z,25.70
2019-03-08T14:10:59.398Z,24.20
2019-03-08T14:16:59.462Z,23.00
2019-03-08T14:22:59.438Z,23.00
2019-03-08T14:28:59.489Z,22.10
2019-03-08T14:34:59.443Z,20.70
2019-03-08T14:40:59.511Z,39.90
2019-03-08T14:46:59.536Z,68.30
2019-03-08T14:52:59.491Z,102.00
2019-03-08T14:58:59.634Z,126.80
2019-03-08T15:04:59.493Z,124.90
2019-03-08T15:10:59.459Z,119.20
2019-03-08T15:17:08.694Z,104.70
2019-03-08T15:22:59.513Z,96.10
2019-03-08T15:28:59.500Z,101.70
2019-03-08T15:34:59.486Z,94.50
2019-03-08T15:40:59.521Z,95.50
2019-03-08T15:47:00.473Z,89.30
2019-03-08T15:52:59.497Z,84.00
2019-03-08T15:58:59.658Z,186.60
2019-03-08T16:04:59.624Z,490.60
2019-03-08T16:11:00.573Z,279.50
2019-03-08T16:16:59.534Z,226.80
2019-03-08T16:23:02.592Z,178.40
2019-03-08T16:28:59.550Z,596.50
2019-03-08T16:34:59.594Z,330.20
2019-03-08T16:40:59.511Z,281.40
2019-03-08T16:46:59.538Z,258.60
2019-03-08T16:52:59.563Z,502.80
2019-03-08T16:58:59.548Z,340.00
2019-03-08T17:04:59.574Z,280.60
2019-03-08T17:10:59.536Z,255.70
2019-03-08T17:16:59.567Z,349.80
2019-03-08T17:22:59.562Z,288.10
2019-03-08T17:28:59.559Z,237.70
2019-03-08T17:34:59.570Z,232.10
2019-03-08T17:40:59.550Z,208.20
2019-03-08T17:46:59.596Z,183.40
2019-03-08T17:52:59.579Z,168.50
2019-03-08T17:58:59.601Z,155.90
2019-03-08T18:04:59.630Z,142.80
2019-03-08T18:10:59.581Z,128.20
2019-03-08T18:16:59.574Z,117.00
2019-03-08T18:23:00.627Z,103.40
2019-03-08T18:28:59.594Z,94.80
2019-03-08T18:34:59.659Z,90.80
2019-03-08T18:40:59.604Z,80.50
2019-03-08T18:46:59.668Z,73.80
2019-03-08T18:52:59.644Z,69.80
2019-03-08T18:58:59.690Z,64.70
2019-03-08T19:04:59.669Z,60.30
2019-03-08T19:10:59.634Z,55.80
2019-03-08T19:16:59.639Z,52.60
2019-03-08T19:22:59.650Z,49.90
2019-03-08T19:28:59.670Z,47.00
2019-03-08T19:34:59.641Z,43.70
2019-03-08T19:40:59.647Z,41.50
2019-03-08T19:46:59.700Z,39.50
2019-03-08T19:52:59.686Z,38.00
2019-03-08T19:58:59.723Z,34.80
2019-03-08T20:04:59.709Z,33.80
2019-03-08T20:10:59.716Z,32.30
2019-03-08T20:16:59.740Z,30.60
2019-03-08T20:22:59.692Z,29.50
2019-03-08T20:28:59.688Z,26.20
2019-03-08T20:34:59.733Z,24.10
2019-03-08T20:40:59.688Z,24.10
2019-03-08T20:46:59.733Z,62.60
2019-03-08T20:52:59.777Z,83.50
2019-03-08T20:58:59.762Z,83.80
2019-03-08T21:04:59.737Z,74.80
2019-03-08T21:10:59.772Z,69.00
2019-03-08T21:17:00.016Z,63.80
2019-03-08T21:22:59.729Z,59.80
2019-03-08T21:28:59.752Z,56.90
2019-03-08T21:34:59.810Z,53.80
2019-03-08T21:40:59.750Z,50.50
2019-03-08T21:46:59.780Z,48.20
2019-03-08T21:52:59.798Z,46.90
2019-03-08T21:58:59.787Z,43.90
2019-03-08T22:04:59.800Z,92.10
2019-03-08T22:10:59.772Z,158.60
2019-03-08T22:16:59.807Z,155.00
2019-03-08T22:22:59.879Z,147.30
2019-03-08T22:28:59.786Z,139.10
2019-03-08T22:34:59.814Z,128.20
2019-03-08T22:40:59.801Z,119.20
2019-03-08T22:46:59.781Z,112.20
2019-03-08T22:52:59.805Z,109.20
2019-03-08T22:58:59.815Z,87.40
2019-03-08T23:04:59.813Z,85.10
2019-03-08T23:10:59.812Z,72.50
2019-03-08T23:16:59.850Z,628.50
2019-03-08T23:22:59.811Z,248.10
2019-03-08T23:28:59.885Z,204.50
2019-03-08T23:34:59.809Z,181.00
2019-03-08T23:40:59.950Z,173.10
2019-03-08T23:46:59.828Z,164.60
2019-03-08T23:52:59.928Z,154.90
2019-03-08T23:58:59.883Z,148.30
